Time;durP1;ratioP1;P1;durP2;ratioP2;P2;SDS_P1;SDS_P2;PMS_P1;PMS_P2;Temp;Humidity;BMP_temperature;BMP_pressure;BME280_temperature;BME280_humidity;BME280_pressure;Samples;Min_cycle;Max_cycle;Signal;HPM_P1;HPM_P2
2023/09/26 00:00:42;;;;;;;0.00;0.00;;;14.50;99.90;;;;;;5024512;28;20555;-86
2023/09/26 00:03:08;;;;;;;0.20;0.20;;;14.50;99.90;;;;;;5024123;28;20709;-87
2023/09/26 00:05:34;;;;;;;0.00;0.00;;;14.50;99.90;;;;;;5024287;28;20519;-88
2023/09/26 00:08:03;;;;;;;0.00;0.00;;;14.50;99.90;;;;;;5024370;28;20258;-88
2023/09/26 00:10:30;;;;;;;0.00;0.00;;;14.40;99.90;;;;;;5024757;28;20110;-87
2023/09/26 00:12:56;;;;;;;0.00;0.00;;;14.40;99.90;;;;;;5024725;28;20065;-86
2023/09/26 00:15:22;;;;;;;0.00;0.00;;;14.40;99.90;;;;;;5025335;28;20144;-89
2023/09/26 00:17:48;;;;;;;0.00;0.00;;;14.40;99.90;;;;;;5023494;28;20660;-90
2023/09/26 00:20:18;;;;;;;0.00;0.00;;;14.30;99.90;;;;;;5024111;28;20033;-89
2023/09/26 00:22:44;;;;;;;0.00;0.00;;;14.30;99.90;;;;;;5022669;28;20054;-84
2023/09/26 00:25:13;;;;;;;0.00;0.00;;;14.30;99.90;;;;;;5013459;28;20556;-87
2023/09/26 00:27:38;;;;;;;0.10;0.10;;;14.20;99.90;;;;;;5021248;28;20030;-84
2023/09/26 00:30:04;;;;;;;0.10;0.10;;;14.20;99.90;;;;;;5021545;28;20103;-83
2023/09/26 00:32:30;;;;;;;0.00;0.00;;;14.20;99.90;;;;;;5021551;28;20041;-84
2023/09/26 00:34:56;;;;;;;0.32;0.32;;;14.20;99.90;;;;;;5021299;28;20268;-83
2023/09/26 00:37:22;;;;;;;0.00;0.00;;;14.20;99.90;;;;;;5022750;28;20080;-86
2023/09/26 00:39:48;;;;;;;0.00;0.00;;;14.10;99.90;;;;;;5020798;28;20029;-83
2023/09/26 00:42:14;;;;;;;0.03;0.03;;;14.00;99.90;;;;;;5023396;28;20107;-88
2023/09/26 00:44:39;;;;;;;0.10;0.10;;;13.90;99.90;;;;;;5022280;28;20041;-85
2023/09/26 00:47:05;;;;;;;0.00;0.00;;;14.00;99.90;;;;;;5016634;28;20052;-88
2023/09/26 00:49:31;;;;;;;0.00;0.00;;;14.10;99.90;;;;;;5021780;28;20022;-85
2023/09/26 00:52:00;;;;;;;0.00;0.00;;;14.00;99.90;;;;;;5023149;28;20048;-86
2023/09/26 00:54:26;;;;;;;0.00;0.00;;;14.00;99.90;;;;;;5023033;28;20057;-88
2023/09/26 00:56:52;;;;;;;0.00;0.00;;;13.90;99.90;;;;;;5021992;28;20033;-87
2023/09/26 00:59:19;;;;;;;0.00;0.00;;;13.80;99.90;;;;;;5024097;28;20037;-88
2023/09/26 01:01:48;;;;;;;0.10;0.10;;;13.80;99.90;;;;;;5022593;28;20030;-86
2023/09/26 01:04:15;;;;;;;0.00;0.00;;;13.90;99.90;;;;;;5020014;28;20045;-88
2023/09/26 01:06:41;;;;;;;;;;;13.90;99.90;;;;;;5022996;28;20511;-85
2023/09/26 01:09:09;;;;;;;0.00;0.00;;;13.90;99.90;;;;;;5019949;28;19913;-85
2023/09/26 01:11:36;;;;;;;0.10;0.10;;;13.90;99.90;;;;;;5022847;28;20045;-87
2023/09/26 01:14:02;;;;;;;0.70;0.52;;;13.80;99.90;;;;;;5022630;28;20030;-88
2023/09/26 01:16:27;;;;;;;0.00;0.00;;;13.70;99.90;;;;;;5019901;28;20810;-86
2023/09/26 01:18:53;;;;;;;0.00;0.00;;;13.70;99.90;;;;;;5022385;28;20037;-85
2023/09/26 01:21:19;;;;;;;0.00;0.00;;;13.60;99.90;;;;;;5022418;28;20037;-84
2023/09/26 01:23:55;;;;;;;0.00;0.00;;;13.70;99.90;;;;;;5022614;28;20099;-87
2023/09/26 01:26:21;;;;;;;0.10;0.10;;;13.70;99.90;;;;;;5018579;28;20572;-85
2023/09/26 01:28:47;;;;;;;0.10;0.10;;;13.80;99.90;;;;;;5023265;28;20048;-86
2023/09/26 01:31:12;;;;;;;0.10;0.10;;;13.80;99.90;;;;;;5020761;28;20037;-86
2023/09/26 01:33:38;;;;;;;0.00;0.00;;;13.80;99.90;;;;;;5018383;28;20871;-86
2023/09/26 01:36:04;;;;;;;0.10;0.10;;;13.80;99.90;;;;;;5020643;28;20132;-86
2023/09/26 01:38:30;;;;;;;0.03;0.03;;;13.70;99.90;;;;;;5020762;28;20065;-88
2023/09/26 01:40:55;;;;;;;0.10;0.10;;;13.70;99.90;;;;;;5022594;28;20485;-89
2023/09/26 01:43:21;;;;;;;0.00;0.00;;;13.70;99.90;;;;;;5018597;28;20025;-87
2023/09/26 01:45:47;;;;;;;0.10;0.10;;;13.70;99.90;;;;;;5018875;28;20069;-85
2023/09/26 01:48:13;;;;;;;0.10;0.10;;;13.60;99.90;;;;;;5026065;28;20022;-85
2023/09/26 01:50:39;;;;;;;0.10;0.10;;;13.60;99.90;;;;;;5027352;28;20041;-85
2023/09/26 01:53:04;;;;;;;0.00;0.00;;;13.70;99.90;;;;;;5027835;28;20056;-89
2023/09/26 01:55:30;;;;;;;0.05;0.05;;;13.70;99.90;;;;;;5027541;28;20488;-91
2023/09/26 01:57:57;;;;;;;0.10;0.10;;;13.70;99.90;;;;;;5026286;28;20885;-90
2023/09/26 02:00:22;;;;;;;0.10;0.10;;;13.70;99.90;;;;;;5026507;28;20040;-86
2023/09/26 02:02:52;;;;;;;0.10;0.10;;;13.70;99.90;;;;;;5026129;28;20029;-86
2023/09/26 02:05:20;;;;;;;0.10;0.10;;;13.50;99.90;;;;;;5025230;28;20076;-85
2023/09/26 02:07:46;;;;;;;0.10;0.10;;;13.50;99.90;;;;;;5024672;28;20029;-85
2023/09/26 02:10:13;;;;;;;0.00;0.00;;;13.50;99.90;;;;;;5024289;28;20378;-87
2023/09/26 02:12:41;;;;;;;0.00;0.00;;;13.50;99.90;;;;;;5026086;28;20036;-87
2023/09/26 02:15:08;;;;;;;0.00;0.00;;;13.60;99.90;;;;;;5025811;28;20036;-85
2023/09/26 02:17:41;;;;;;;0.98;0.93;;;13.60;99.90;;;;;;5022614;28;20041;-88
2023/09/26 02:20:14;;;;;;;0.10;0.10;;;13.50;99.90;;;;;;5021274;28;20030;-85
2023/09/26 02:22:45;;;;;;;0.00;0.00;;;13.50;99.90;;;;;;5024599;28;20120;-86
2023/09/26 02:25:12;;;;;;;0.10;0.10;;;13.50;99.90;;;;;;5022687;28;20504;-86
2023/09/26 02:27:38;;;;;;;;;;;13.40;99.90;;;;;;5024455;28;20033;-87
2023/09/26 02:30:05;;;;;;;0.10;0.10;;;13.40;99.90;;;;;;5024343;28;20758;-86
2023/09/26 02:32:34;;;;;;;0.10;0.10;;;13.40;99.90;;;;;;5024292;28;20053;-85
2023/09/26 02:35:01;;;;;;;0.10;0.10;;;13.40;99.90;;;;;;5024316;28;20034;-85
2023/09/26 02:37:27;;;;;;;0.00;0.00;;;13.30;99.90;;;;;;5024469;28;20026;-88
2023/09/26 02:39:53;;;;;;;0.10;0.10;;;13.30;99.90;;;;;;5023123;28;20040;-86
2023/09/26 02:42:18;;;;;;;0.00;0.00;;;13.30;99.90;;;;;;5017622;28;20453;-86
2023/09/26 02:44:44;;;;;;;0.10;0.10;;;13.20;99.90;;;;;;5022053;28;20037;-86
2023/09/26 02:47:10;;;;;;;0.17;0.17;;;13.10;99.90;;;;;;5023516;28;20053;-86
2023/09/26 02:49:35;;;;;;;0.00;0.00;;;13.10;99.90;;;;;;5024530;28;20100;-88
2023/09/26 02:52:01;;;;;;;0.00;0.00;;;13.10;99.90;;;;;;5021551;28;20025;-92
2023/09/26 02:54:27;;;;;;;0.10;0.10;;;13.10;99.90;;;;;;5024575;28;20029;-90
2023/09/26 02:56:53;;;;;;;0.10;0.10;;;13.20;99.90;;;;;;5023565;28;20045;-90
2023/09/26 02:59:18;;;;;;;0.03;0.03;;;13.10;99.90;;;;;;5024557;28;20053;-89
2023/09/26 03:01:44;;;;;;;0.73;0.73;;;13.00;99.90;;;;;;5023985;28;20025;-89
2023/09/26 03:04:10;;;;;;;0.10;0.10;;;13.00;99.90;;;;;;5024704;28;20083;-85
2023/09/26 03:06:35;;;;;;;0.10;0.10;;;13.00;99.90;;;;;;5024999;28;20464;-89
2023/09/26 03:09:01;;;;;;;0.08;0.08;;;13.00;99.90;;;;;;5024961;28;20075;-87
2023/09/26 03:11:27;;;;;;;0.10;0.10;;;13.00;99.90;;;;;;5029812;28;20037;-87
2023/09/26 03:13:52;;;;;;;0.10;0.10;;;13.00;99.90;;;;;;5025017;28;20117;-90
2023/09/26 03:16:18;;;;;;;0.10;0.10;;;12.90;99.90;;;;;;5026767;28;20033;-88
2023/09/26 03:18:45;;;;;;;0.10;0.10;;;13.00;99.90;;;;;;5025214;28;20041;-88
2023/09/26 03:21:11;;;;;;;0.10;0.10;;;12.90;99.90;;;;;;5025644;28;20033;-89
2023/09/26 03:23:37;;;;;;;0.10;0.10;;;13.00;99.90;;;;;;5024406;28;20057;-89
2023/09/26 03:26:10;;;;;;;0.10;0.10;;;13.00;99.90;;;;;;5025917;28;20076;-87
2023/09/26 03:28:36;;;;;;;0.10;0.10;;;13.00;99.90;;;;;;5024735;28;20030;-88
2023/09/26 03:31:05;;;;;;;0.10;0.10;;;13.00;99.90;;;;;;5023425;28;20025;-87
2023/09/26 03:33:32;;;;;;;0.00;0.00;;;12.90;99.90;;;;;;5022903;28;20103;-87
2023/09/26 03:35:59;;;;;;;0.10;0.10;;;12.90;99.90;;;;;;5025192;28;20085;-85
2023/09/26 03:38:24;;;;;;;7.80;1.00;;;12.90;99.90;;;;;;5023984;28;20033;-88
2023/09/26 03:41:00;;;;;;;0.10;0.10;;;13.00;99.90;;;;;;5024265;28;20040;-86
2023/09/26 03:43:26;;;;;;;0.20;0.20;;;12.90;99.90;;;;;;5024106;28;20528;-85
2023/09/26 03:46:02;;;;;;;0.00;0.00;;;12.90;99.90;;;;;;5023820;28;20041;-86
2023/09/26 03:48:28;;;;;;;0.03;0.03;;;12.80;99.90;;;;;;5022127;28;20107;-88
2023/09/26 03:50:54;;;;;;;0.10;0.10;;;12.80;99.90;;;;;;5025071;28;20029;-87
2023/09/26 03:53:20;;;;;;;0.10;0.10;;;12.80;99.90;;;;;;5025074;28;20032;-89
2023/09/26 03:55:53;;;;;;;0.10;0.10;;;12.80;99.90;;;;;;5024393;28;20484;-89
2023/09/26 03:58:19;;;;;;;0.10;0.10;;;12.90;99.90;;;;;;5024000;28;20029;-89
2023/09/26 04:00:45;;;;;;;0.00;0.00;;;12.80;99.90;;;;;;5023365;28;20366;-87
2023/09/26 04:03:11;;;;;;;0.10;0.10;;;12.80;99.90;;;;;;5023108;28;20083;-90
2023/09/26 04:05:36;;;;;;;0.00;0.00;;;12.80;99.90;;;;;;5023395;28;20061;-88
2023/09/26 04:08:02;;;;;;;0.00;0.00;;;12.80;99.90;;;;;;5021490;28;20029;-89
2023/09/26 04:10:28;;;;;;;0.20;0.20;;;12.80;99.90;;;;;;5023531;28;20079;-88
2023/09/26 04:12:54;;;;;;;0.10;0.10;;;12.70;99.90;;;;;;5023514;28;20036;-87
2023/09/26 04:15:20;;;;;;;0.10;0.10;;;12.80;99.90;;;;;;5024873;28;20029;-87
2023/09/26 04:17:46;;;;;;;0.07;0.07;;;12.80;99.90;;;;;;5023704;28;20201;-82
2023/09/26 04:20:19;;;;;;;0.10;0.10;;;12.70;99.90;;;;;;5022578;28;20791;-84
2023/09/26 04:22:45;;;;;;;0.05;0.05;;;12.80;99.90;;;;;;5019245;28;20029;-85
2023/09/26 04:25:12;;;;;;;0.10;0.10;;;12.80;99.90;;;;;;5023604;28;20060;-84
2023/09/26 04:27:37;;;;;;;0.10;0.10;;;12.80;99.90;;;;;;5024040;28;20895;-84
2023/09/26 04:30:05;;;;;;;0.10;0.10;;;12.70;99.90;;;;;;5022612;28;20029;-81
2023/09/26 04:32:32;;;;;;;0.00;0.00;;;12.60;99.90;;;;;;5016229;28;20022;-82
2023/09/26 04:34:57;;;;;;;0.00;0.00;;;12.70;99.90;;;;;;5024513;28;20033;-88
2023/09/26 04:37:23;;;;;;;0.03;0.03;;;12.60;99.90;;;;;;5022471;28;20051;-89
2023/09/26 04:39:49;;;;;;;0.10;0.10;;;12.60;99.90;;;;;;5024161;28;20040;-85
2023/09/26 04:42:14;;;;;;;0.00;0.00;;;12.60;99.90;;;;;;5022445;28;20091;-87
2023/09/26 04:44:40;;;;;;;0.03;0.03;;;12.60;99.90;;;;;;5022213;28;20042;-89
2023/09/26 04:47:06;;;;;;;0.10;0.10;;;12.60;99.90;;;;;;5022752;28;20048;-90
2023/09/26 04:49:34;;;;;;;0.00;0.00;;;12.70;99.90;;;;;;5025052;28;20032;-87
2023/09/26 04:52:00;;;;;;;0.10;0.10;;;12.70;99.90;;;;;;5024672;28;20290;-87
2023/09/26 04:54:26;;;;;;;0.00;0.00;;;12.50;99.90;;;;;;5023505;28;20029;-91
2023/09/26 04:56:52;;;;;;;0.00;0.00;;;12.50;99.90;;;;;;5025203;28;20438;-89
2023/09/26 04:59:17;;;;;;;0.00;0.00;;;12.50;99.90;;;;;;5025005;28;20025;-91
2023/09/26 05:01:45;;;;;;;0.10;0.10;;;12.60;99.90;;;;;;5021724;28;20655;-90
2023/09/26 05:04:11;;;;;;;0.00;0.00;;;12.60;99.90;;;;;;5026800;28;20037;-89
2023/09/26 05:06:37;;;;;;;0.10;0.10;;;12.50;99.90;;;;;;5022777;28;20648;-88
2023/09/26 05:09:05;;;;;;;0.43;0.43;;;12.50;99.90;;;;;;5022574;28;20041;-90
2023/09/26 05:11:31;;;;;;;0.10;0.10;;;12.50;99.90;;;;;;5024922;28;20033;-91
2023/09/26 05:13:58;;;;;;;0.00;0.00;;;12.50;99.90;;;;;;5022055;28;20025;-85
2023/09/26 05:16:24;;;;;;;0.52;0.52;;;12.50;99.90;;;;;;5015262;28;20044;-88
2023/09/26 05:18:50;;;;;;;2.20;2.00;;;12.50;99.90;;;;;;5020628;28;20120;-88
2023/09/26 05:21:15;;;;;;;0.10;0.10;;;12.40;99.90;;;;;;5021126;28;20473;-87
2023/09/26 05:23:41;;;;;;;0.00;0.00;;;12.40;99.90;;;;;;5020199;28;20536;-89
2023/09/26 05:26:12;;;;;;;0.05;0.05;;;12.40;99.90;;;;;;5018080;28;20032;-87
2023/09/26 05:28:38;;;;;;;0.10;0.10;;;12.40;99.90;;;;;;5021246;28;20065;-88
2023/09/26 05:31:04;;;;;;;0.00;0.00;;;12.40;99.90;;;;;;5020243;28;21014;-88
2023/09/26 05:33:30;;;;;;;0.10;0.10;;;12.30;99.90;;;;;;5021225;28;20148;-88
2023/09/26 05:35:56;;;;;;;0.10;0.10;;;12.40;99.90;;;;;;5020671;28;20029;-87
2023/09/26 05:38:22;;;;;;;0.10;0.10;;;12.40;99.90;;;;;;5019296;28;20060;-87
2023/09/26 05:40:50;;;;;;;0.00;0.00;;;12.30;99.90;;;;;;5022117;28;20033;-86
2023/09/26 05:43:16;;;;;;;0.10;0.10;;;12.30;99.90;;;;;;5021860;28;20051;-86
2023/09/26 05:45:41;;;;;;;0.00;0.00;;;12.40;99.90;;;;;;5022852;28;20484;-84
2023/09/26 05:48:07;;;;;;;0.10;0.10;;;12.30;99.90;;;;;;5023732;28;20473;-85
2023/09/26 05:50:33;;;;;;;0.00;0.00;;;12.20;99.90;;;;;;5022129;28;20038;-86
2023/09/26 05:53:00;;;;;;;0.10;0.10;;;12.20;99.90;;;;;;5019222;28;20037;-85
2023/09/26 05:55:26;;;;;;;0.10;0.10;;;12.20;99.90;;;;;;5018281;28;20037;-87
2023/09/26 05:57:51;;;;;;;0.00;0.00;;;12.20;99.90;;;;;;5022469;28;20480;-86
2023/09/26 06:00:18;;;;;;;0.10;0.10;;;12.70;99.90;;;;;;5021853;28;20030;-85
2023/09/26 06:02:44;;;;;;;;;;;13.10;99.90;;;;;;5021608;28;20025;-86
2023/09/26 06:05:11;;;;;;;0.07;0.07;;;13.30;99.90;;;;;;5024766;28;19960;-92
2023/09/26 06:07:37;;;;;;;0.10;0.10;;;13.50;99.90;;;;;;5022694;28;20033;-90
2023/09/26 06:10:03;;;;;;;0.00;0.00;;;13.60;99.90;;;;;;5022337;28;20048;-91
2023/09/26 06:12:30;;;;;;;0.45;0.45;;;13.90;99.90;;;;;;5022292;28;20029;-90
2023/09/26 06:14:56;;;;;;;0.00;0.00;;;14.00;99.90;;;;;;5017991;28;20037;-88
2023/09/26 06:17:21;;;;;;;0.00;0.00;;;14.20;99.90;;;;;;5016332;28;20028;-89
2023/09/26 06:19:47;;;;;;;0.10;0.10;;;14.70;98.90;;;;;;5022473;28;20028;-88
2023/09/26 06:22:14;;;;;;;0.10;0.10;;;15.00;97.60;;;;;;5023660;28;20096;-89
2023/09/26 06:24:40;;;;;;;;;;;15.30;96.70;;;;;;5022928;28;20054;-86
2023/09/26 06:27:05;;;;;;;0.00;0.00;;;15.80;95.70;;;;;;5019361;28;19913;-88
2023/09/26 06:29:31;;;;;;;0.10;0.10;;;15.80;95.60;;;;;;5018607;28;20030;-87
2023/09/26 06:31:57;;;;;;;0.00;0.00;;;15.90;95.70;;;;;;5022649;28;20036;-89
2023/09/26 06:34:22;;;;;;;0.00;0.00;;;16.00;95.20;;;;;;5029893;28;20026;-90
2023/09/26 06:36:52;;;;;;;0.00;0.00;;;16.30;94.40;;;;;;5030823;28;20041;-89
2023/09/26 06:39:18;;;;;;;0.00;0.00;;;17.00;93.20;;;;;;5031961;28;20071;-88
2023/09/26 06:41:43;;;;;;;0.00;0.00;;;17.10;92.20;;;;;;5043582;28;20026;-88
2023/09/26 06:44:12;;;;;;;0.00;0.00;;;17.00;92.30;;;;;;5032625;28;20053;-89
2023/09/26 06:46:38;;;;;;;0.00;0.00;;;17.30;92.00;;;;;;5046060;28;20025;-89
2023/09/26 06:49:03;;;;;;;0.00;0.00;;;17.40;91.40;;;;;;5037076;28;20036;-88
2023/09/26 06:51:33;;;;;;;0.00;0.00;;;17.90;91.00;;;;;;5047742;28;20524;-89
2023/09/26 06:54:00;;;;;;;0.00;0.00;;;17.80;90.00;;;;;;5038157;28;20140;-90
2023/09/26 06:56:25;;;;;;;0.00;0.00;;;18.20;90.10;;;;;;5033124;28;20017;-87
2023/09/26 06:58:51;;;;;;;0.00;0.00;;;18.40;88.20;;;;;;5032604;28;20028;-87
2023/09/26 07:01:18;;;;;;;0.00;0.00;;;18.30;89.70;;;;;;5032928;28;20138;-90
2023/09/26 07:03:44;;;;;;;0.00;0.00;;;18.20;87.50;;;;;;5038500;28;20025;-88
2023/09/26 07:06:11;;;;;;;0.00;0.00;;;18.50;88.60;;;;;;5035964;28;20041;-90
2023/09/26 07:08:38;;;;;;;0.00;0.00;;;18.90;85.20;;;;;;5028229;28;20034;-88
2023/09/26 07:11:05;;;;;;;0.00;0.00;;;19.30;86.00;;;;;;5033082;28;20116;-87
2023/09/26 07:13:30;;;;;;;0.00;0.00;;;19.20;84.30;;;;;;5030508;28;20037;-87
2023/09/26 07:16:01;;;;;;;0.00;0.00;;;19.60;83.70;;;;;;5032361;28;20021;-87
2023/09/26 07:18:26;;;;;;;0.00;0.00;;;19.20;84.70;;;;;;5030100;28;20025;-87
2023/09/26 07:20:53;;;;;;;0.00;0.00;;;19.60;84.30;;;;;;5031706;28;20031;-86
2023/09/26 07:23:18;;;;;;;0.00;0.00;;;20.00;83.80;;;;;;5035618;28;20024;-88
2023/09/26 07:25:44;;;;;;;0.00;0.00;;;19.80;81.20;;;;;;5027865;28;20057;-90
2023/09/26 07:28:10;;;;;;;0.00;0.00;;;19.30;82.30;;;;;;5020941;28;20301;-92
2023/09/26 07:30:36;;;;;;;0.00;0.00;;;19.40;82.40;;;;;;5030048;28;20037;-88
2023/09/26 07:33:03;;;;;;;0.00;0.00;;;20.30;79.80;;;;;;5030104;28;20022;-88
2023/09/26 07:35:31;;;;;;;0.00;0.00;;;20.50;78.90;;;;;;5041832;28;20030;-89
2023/09/26 07:37:58;;;;;;;0.10;0.10;;;20.60;77.40;;;;;;5047297;28;20046;-88
2023/09/26 07:40:24;;;;;;;0.00;0.00;;;19.60;77.10;;;;;;5033642;28;20128;-89
2023/09/26 07:42:49;;;;;;;0.00;0.00;;;20.00;78.00;;;;;;5028358;28;20108;-88
2023/09/26 07:45:16;;;;;;;0.00;0.00;;;20.70;76.00;;;;;;5030670;28;20037;-88
2023/09/26 07:47:43;;;;;;;0.00;0.00;;;21.00;74.80;;;;;;5052158;28;20037;-88
2023/09/26 07:50:09;;;;;;;;;;;21.20;74.10;;;;;;5027690;28;20096;-87
2023/09/26 07:52:34;;;;;;;0.00;0.00;;;21.00;73.00;;;;;;5028402;28;20352;-88
2023/09/26 07:55:00;;;;;;;0.00;0.00;;;21.50;73.10;;;;;;5018738;28;20614;-88
2023/09/26 07:57:26;;;;;;;0.00;0.00;;;21.70;71.60;;;;;;5016328;28;20874;-88
2023/09/26 07:59:51;;;;;;;0.00;0.00;;;21.70;71.50;;;;;;5030639;28;20036;-88
2023/09/26 08:02:17;;;;;;;0.00;0.00;;;22.20;69.70;;;;;;5029209;28;20095;-87
2023/09/26 08:04:43;;;;;;;0.00;0.00;;;22.60;69.10;;;;;;5023688;28;20033;-87
2023/09/26 08:07:08;;;;;;;0.00;0.00;;;22.80;67.80;;;;;;5035462;28;20057;-88
2023/09/26 08:09:34;;;;;;;0.00;0.00;;;22.80;66.80;;;;;;5031582;28;20335;-87
2023/09/26 08:12:00;;;;;;;0.00;0.00;;;22.90;66.60;;;;;;5031040;28;20037;-88
2023/09/26 08:14:25;;;;;;;0.00;0.00;;;23.10;66.40;;;;;;5025025;28;20033;-86
2023/09/26 08:16:51;;;;;;;0.00;0.00;;;22.70;67.30;;;;;;5041341;28;20037;-87
2023/09/26 08:19:17;;;;;;;0.00;0.00;;;22.80;67.80;;;;;;5031183;28;20033;-88
2023/09/26 08:21:46;;;;;;;0.00;0.00;;;23.30;64.40;;;;;;5030905;28;20037;-89
2023/09/26 08:24:12;;;;;;;0.00;0.00;;;23.60;65.20;;;;;;5034355;28;20060;-89
2023/09/26 08:26:37;;;;;;;0.00;0.00;;;23.40;63.90;;;;;;5033230;28;20025;-90
2023/09/26 08:29:05;;;;;;;0.00;0.00;;;23.60;64.70;;;;;;5041265;28;20551;-88
2023/09/26 08:31:31;;;;;;;0.00;0.00;;;24.10;64.90;;;;;;5036474;28;20029;-88
2023/09/26 08:33:57;;;;;;;0.00;0.00;;;24.10;62.80;;;;;;5030676;28;20079;-90
2023/09/26 08:36:23;;;;;;;0.00;0.00;;;24.60;63.30;;;;;;5030470;28;20029;-87
2023/09/26 08:38:50;;;;;;;0.00;0.00;;;24.90;61.40;;;;;;5039471;28;20029;-87
2023/09/26 08:41:17;;;;;;;0.00;0.00;;;25.50;61.10;;;;;;5019725;28;20040;-89
2023/09/26 08:43:44;;;;;;;0.00;0.00;;;25.30;59.60;;;;;;5027416;28;20108;-89
2023/09/26 08:46:09;;;;;;;;;;;25.80;59.10;;;;;;5031366;28;20177;-88
2023/09/26 08:48:35;;;;;;;;;;;25.90;58.20;;;;;;5030292;28;20379;-89
2023/09/26 08:51:02;;;;;;;0.00;0.00;;;26.60;57.80;;;;;;5034656;28;20715;-87
2023/09/26 08:53:28;;;;;;;0.00;0.00;;;27.00;56.70;;;;;;5030088;28;20056;-89
2023/09/26 08:55:54;;;;;;;0.00;0.00;;;27.00;57.20;;;;;;5017037;28;20040;-88
2023/09/26 08:58:21;;;;;;;0.00;0.00;;;27.00;57.80;;;;;;5030625;28;20029;-88
2023/09/26 09:00:47;;;;;;;0.00;0.00;;;28.00;57.80;;;;;;5035173;28;20026;-89
2023/09/26 09:03:13;;;;;;;0.00;0.00;;;27.10;57.20;;;;;;5030126;28;20156;-88
2023/09/26 09:05:40;;;;;;;0.00;0.00;;;27.60;56.80;;;;;;5032486;28;20116;-90
2023/09/26 09:08:08;;;;;;;0.00;0.00;;;27.40;58.00;;;;;;5030611;28;20165;-90
2023/09/26 09:10:48;;;;;;;0.00;0.00;;;27.20;57.40;;;;;;5053517;28;20161;-88
2023/09/26 09:13:32;;;;;;;0.00;0.00;;;28.00;57.90;;;;;;5020650;28;20044;-89
2023/09/26 09:16:15;;;;;;;0.00;0.00;;;27.70;56.60;;;;;;5023776;28;20022;-88
2023/09/26 09:18:50;;;;;;;0.00;0.00;;;28.10;56.70;;;;;;5027081;28;20056;-89
2023/09/26 09:21:25;;;;;;;0.00;0.00;;;28.00;57.50;;;;;;5031686;28;20021;-90
2023/09/26 09:23:52;;;;;;;0.00;0.00;;;27.80;57.10;;;;;;5031988;28;20492;-90
2023/09/26 09:26:20;;;;;;;0.00;0.00;;;28.20;57.10;;;;;;5029187;28;20022;-88
2023/09/26 09:28:46;;;;;;;0.00;0.00;;;28.00;57.10;;;;;;5030002;28;20492;-88
2023/09/26 09:31:14;;;;;;;0.00;0.00;;;27.80;56.10;;;;;;5024639;28;20357;-88
2023/09/26 09:33:47;;;;;;;0.00;0.00;;;28.00;56.10;;;;;;5023494;28;20026;-90
2023/09/26 09:36:13;;;;;;;0.00;0.00;;;28.50;54.80;;;;;;5033756;28;20852;-89
2023/09/26 09:38:39;;;;;;;;;;;28.80;55.90;;;;;;5022168;28;20132;-89
2023/09/26 09:41:06;;;;;;;;;;;29.40;52.80;;;;;;5037209;28;20330;-88
2023/09/26 09:43:32;;;;;;;0.00;0.00;;;29.30;53.20;;;;;;5024759;28;19905;-89
2023/09/26 09:46:04;;;;;;;0.00;0.00;;;29.10;53.50;;;;;;5028638;28;20497;-88
2023/09/26 09:48:31;;;;;;;0.00;0.00;;;27.60;52.60;;;;;;5028603;28;20801;-90
2023/09/26 09:51:03;;;;;;;0.00;0.00;;;27.20;57.60;;;;;;5025616;28;20100;-88
2023/09/26 09:53:33;;;;;;;0.00;0.00;;;26.70;58.20;;;;;;5032616;28;20022;-89
2023/09/26 09:56:04;;;;;;;0.00;0.00;;;26.20;59.20;;;;;;5027297;28;20067;-88
2023/09/26 09:58:32;;;;;;;0.00;0.00;;;26.00;57.70;;;;;;5025754;28;20021;-88
2023/09/26 10:00:59;;;;;;;0.00;0.00;;;26.00;60.30;;;;;;5028276;28;20523;-88
2023/09/26 10:03:26;;;;;;;0.00;0.00;;;25.80;61.30;;;;;;5026793;28;20080;-87
2023/09/26 10:05:53;;;;;;;0.00;0.00;;;25.50;59.60;;;;;;5029801;28;20412;-88
2023/09/26 10:08:20;;;;;;;0.00;0.00;;;25.30;59.10;;;;;;5032354;28;20389;-87
2023/09/26 10:10:45;;;;;;;0.00;0.00;;;25.40;61.20;;;;;;5027074;28;20030;-88
2023/09/26 10:13:13;;;;;;;0.00;0.00;;;25.20;60.40;;;;;;5032996;28;20033;-89
2023/09/26 10:16:17;;;;;;;0.00;0.00;;;25.10;60.20;;;;;;5032750;28;20081;-89
2023/09/26 10:18:45;;;;;;;0.00;0.00;;;25.10;64.30;;;;;;5003613;28;20065;-88
2023/09/26 10:21:19;;;;;;;0.00;0.00;;;25.00;60.60;;;;;;5042182;28;20069;-88
2023/09/26 10:24:15;;;;;;;0.00;0.00;;;25.10;61.40;;;;;;5027855;28;20057;-86
2023/09/26 10:26:48;;;;;;;0.00;0.00;;;25.10;63.90;;;;;;5038833;28;20563;-88
2023/09/26 10:29:27;;;;;;;0.00;0.00;;;25.10;64.20;;;;;;5057764;28;20037;-88
2023/09/26 10:31:57;;;;;;;0.00;0.00;;;25.20;62.70;;;;;;5034434;28;20028;-88
2023/09/26 10:34:27;;;;;;;0.00;0.00;;;25.00;63.90;;;;;;5023235;28;20116;-88
2023/09/26 10:36:54;;;;;;;0.00;0.00;;;24.80;61.90;;;;;;5041096;28;20032;-89
2023/09/26 10:39:38;;;;;;;0.00;0.00;;;24.90;63.50;;;;;;5031072;28;20021;-88
2023/09/26 10:42:20;;;;;;;0.00;0.00;;;24.90;61.40;;;;;;5034026;28;20192;-88
2023/09/26 10:44:46;;;;;;;1.10;1.05;;;25.00;63.00;;;;;;5032650;28;20554;-86
2023/09/26 10:47:20;;;;;;;0.00;0.00;;;25.00;60.20;;;;;;5017447;28;20062;-87
2023/09/26 10:49:46;;;;;;;0.10;0.10;;;25.30;60.40;;;;;;5028056;28;20048;-87
2023/09/26 10:52:13;;;;;;;0.00;0.00;;;25.10;56.10;;;;;;5034947;28;20087;-87
2023/09/26 10:54:41;;;;;;;0.00;0.00;;;25.10;54.00;;;;;;5032992;28;20026;-88
2023/09/26 10:57:07;;;;;;;0.00;0.00;;;25.30;54.60;;;;;;5026571;28;20032;-87
2023/09/26 10:59:34;;;;;;;0.00;0.00;;;25.10;55.90;;;;;;5028923;28;20022;-87
2023/09/26 11:02:01;;;;;;;0.00;0.00;;;25.30;61.00;;;;;;5042698;28;20052;-88
2023/09/26 11:04:32;;;;;;;0.00;0.00;;;25.20;61.80;;;;;;5036001;28;20102;-89
2023/09/26 11:06:59;;;;;;;0.00;0.00;;;25.20;59.00;;;;;;5032663;28;20039;-88
2023/09/26 11:09:26;;;;;;;0.00;0.00;;;25.10;55.80;;;;;;5027237;28;20751;-88
2023/09/26 11:11:55;;;;;;;0.00;0.00;;;25.20;58.10;;;;;;5041606;28;20032;-89
2023/09/26 11:14:21;;;;;;;0.00;0.00;;;25.20;60.60;;;;;;5031864;28;20138;-88
2023/09/26 11:16:47;;;;;;;0.00;0.00;;;25.20;56.80;;;;;;5038517;28;20032;-90
2023/09/26 11:19:12;;;;;;;0.00;0.00;;;25.30;56.00;;;;;;5036919;28;20033;-87
2023/09/26 11:21:38;;;;;;;0.00;0.00;;;25.20;55.60;;;;;;5030008;28;20021;-87
2023/09/26 11:24:20;;;;;;;0.00;0.00;;;25.30;55.50;;;;;;5013051;28;20607;-87
2023/09/26 11:26:48;;;;;;;0.00;0.00;;;25.20;55.90;;;;;;5040449;28;20705;-88
2023/09/26 11:29:17;;;;;;;0.00;0.00;;;25.10;56.70;;;;;;5029510;28;20022;-90
2023/09/26 11:31:44;;;;;;;0.00;0.00;;;25.00;55.90;;;;;;5031380;28;20111;-88
2023/09/26 11:34:10;;;;;;;0.00;0.00;;;24.80;54.00;;;;;;5040211;28;20158;-88
2023/09/26 11:36:39;;;;;;;0.00;0.00;;;24.80;56.90;;;;;;5046134;28;20032;-90
2023/09/26 11:39:11;;;;;;;0.00;0.00;;;24.80;59.60;;;;;;5037182;28;20040;-88
2023/09/26 11:41:37;;;;;;;0.00;0.00;;;24.70;61.50;;;;;;5037682;28;20033;-89
2023/09/26 11:44:20;;;;;;;0.00;0.00;;;24.80;61.10;;;;;;5037730;28;20087;-87
2023/09/26 11:46:48;;;;;;;0.00;0.00;;;24.60;58.10;;;;;;5029968;28;20124;-88
2023/09/26 11:49:15;;;;;;;0.00;0.00;;;24.50;59.20;;;;;;5020711;28;20044;-90
2023/09/26 11:51:41;;;;;;;0.00;0.00;;;24.50;60.00;;;;;;5029817;28;20064;-88
2023/09/26 11:54:07;;;;;;;0.00;0.00;;;24.50;59.50;;;;;;5027845;28;20056;-87
2023/09/26 11:56:34;;;;;;;0.00;0.00;;;24.40;60.70;;;;;;5025757;28;20041;-90
2023/09/26 11:59:01;;;;;;;0.00;0.00;;;24.40;60.40;;;;;;5028691;28;20049;-87
2023/09/26 12:01:27;;;;;;;0.00;0.00;;;24.40;60.50;;;;;;5031573;28;20056;-88
2023/09/26 12:03:52;;;;;;;0.00;0.00;;;24.40;57.70;;;;;;5021181;28;20481;-87
2023/09/26 12:06:18;;;;;;;0.00;0.00;;;24.60;58.70;;;;;;5031763;28;20044;-87
2023/09/26 12:08:44;;;;;;;0.00;0.00;;;24.60;60.70;;;;;;5029960;28;20029;-89
2023/09/26 12:11:11;;;;;;;0.00;0.00;;;24.70;59.40;;;;;;5029255;28;20053;-87
2023/09/26 12:13:37;;;;;;;0.00;0.00;;;24.60;60.30;;;;;;5029755;28;20052;-88
2023/09/26 12:16:02;;;;;;;0.00;0.00;;;24.50;55.30;;;;;;5030736;28;20029;-88
2023/09/26 12:18:29;;;;;;;0.00;0.00;;;24.40;55.90;;;;;;5037022;28;20029;-86
2023/09/26 12:20:55;;;;;;;0.00;0.00;;;24.60;60.20;;;;;;5030950;28;20256;-87
2023/09/26 12:23:22;;;;;;;0.00;0.00;;;24.50;57.50;;;;;;5025899;28;20032;-87
2023/09/26 12:25:49;;;;;;;;;;;24.30;53.80;;;;;;5039529;28;20132;-88
2023/09/26 12:28:16;;;;;;;0.00;0.00;;;24.30;56.20;;;;;;5031173;28;19905;-87
2023/09/26 12:30:42;;;;;;;0.00;0.00;;;24.20;55.30;;;;;;5028858;28;20083;-86
2023/09/26 12:33:07;;;;;;;0.00;0.00;;;24.30;59.70;;;;;;5030826;28;20021;-90
2023/09/26 12:35:33;;;;;;;0.00;0.00;;;24.30;55.10;;;;;;5029303;28;20114;-87
2023/09/26 12:38:00;;;;;;;0.00;0.00;;;24.50;60.00;;;;;;5030217;28;20741;-86
2023/09/26 12:40:26;;;;;;;0.00;0.00;;;24.40;61.50;;;;;;5029334;28;20048;-86
2023/09/26 12:42:52;;;;;;;0.10;0.10;;;24.40;64.50;;;;;;5039301;28;20049;-87
2023/09/26 12:45:18;;;;;;;0.00;0.00;;;24.40;61.40;;;;;;5036978;28;20443;-87
2023/09/26 12:47:43;;;;;;;0.00;0.00;;;24.30;63.70;;;;;;5032628;28;20029;-87
2023/09/26 12:50:09;;;;;;;0.00;0.00;;;24.40;56.90;;;;;;5030917;28;20051;-89